createdAt,value
2019-03-20T00:00:01.333Z,1020.54
2019-03-20T00:01:01.301Z,1020.54
2019-03-20T00:02:01.271Z,1020.59
2019-03-20T00:03:01.240Z,1020.59
2019-03-20T00:04:01.209Z,1020.61
2019-03-20T00:05:01.177Z,1020.59
2019-03-20T00:06:01.148Z,1020.61
2019-03-20T00:07:01.117Z,1020.6
2019-03-20T00:08:01.086Z,1020.59
2019-03-20T00:09:01.056Z,1020.58
2019-03-20T00:10:01.026Z,1020.62
2019-03-20T00:11:00.996Z,1020.59
2019-03-20T00:12:00.964Z,1020.57
2019-03-20T00:13:00.935Z,1020.58
2019-03-20T00:14:00.904Z,1020.56
2019-03-20T00:15:00.873Z,1020.48
2019-03-20T00:16:00.842Z,1020.52
2019-03-20T00:17:00.812Z,1020.51
2019-03-20T00:18:00.780Z,1020.53
2019-03-20T00:19:00.772Z,1020.51
2019-03-20T00:20:00.721Z,1020.53
2019-03-20T00:21:00.689Z,1020.53
2019-03-20T00:22:00.658Z,1020.56
2019-03-20T00:23:00.629Z,1020.55
2019-03-20T00:24:00.600Z,1020.53
2019-03-20T00:25:00.567Z,1020.54
2019-03-20T00:26:00.536Z,1020.59
2019-03-20T00:27:00.507Z,1020.62
2019-03-20T00:28:00.475Z,1020.62
2019-03-20T00:29:00.444Z,1020.65
2019-03-20T00:30:00.445Z,1020.63
2019-03-20T00:31:00.383Z,1020.67
2019-03-20T00:32:00.353Z,1020.63
2019-03-20T00:33:00.320Z,1020.62
2019-03-20T00:34:00.291Z,1020.66
2019-03-20T00:35:01.339Z,1020.65
2019-03-20T00:36:00.231Z,1020.63
2019-03-20T00:37:00.198Z,1020.64
2019-03-20T00:38:00.168Z,1020.64
2019-03-20T00:39:00.139Z,1020.6
2019-03-20T00:40:00.119Z,1020.65
2019-03-20T00:41:00.077Z,1020.64
2019-03-20T00:42:00.046Z,1020.64
2019-03-20T00:43:00.017Z,1020.61
2019-03-20T00:43:59.984Z,1020.6
2019-03-20T00:44:59.953Z,1020.6
2019-03-20T00:45:59.922Z,1020.57
2019-03-20T00:46:59.892Z,1020.6
2019-03-20T00:47:59.860Z,1020.6
2019-03-20T00:48:59.829Z,1020.64
2019-03-20T00:49:59.834Z,1020.65
2019-03-20T00:50:59.826Z,1020.64
2019-03-20T00:51:59.735Z,1020.6
2019-03-20T00:52:59.704Z,1020.61
2019-03-20T00:53:59.675Z,1020.59
2019-03-20T00:54:59.643Z,1020.6
2019-03-20T00:55:59.611Z,1020.54
2019-03-20T00:56:59.581Z,1020.56
2019-03-20T00:57:59.551Z,1020.56
2019-03-20T00:58:59.531Z,1020.52
2019-03-20T00:59:59.488Z,1020.55
2019-03-20T01:00:59.459Z,1020.58
2019-03-20T01:01:59.431Z,1020.55
2019-03-20T01:02:59.394Z,1020.54
2019-03-20T01:03:59.364Z,1020.55
2019-03-20T01:04:59.334Z,1020.53
2019-03-20T01:05:59.302Z,1020.56
2019-03-20T01:06:59.270Z,1020.54
2019-03-20T01:07:59.239Z,1020.49
2019-03-20T01:08:59.209Z,1020.5
2019-03-20T01:09:59.176Z,1020.48
2019-03-20T01:10:59.147Z,1020.44
2019-03-20T01:11:59.115Z,1020.45
2019-03-20T01:12:59.082Z,1020.46
2019-03-20T01:13:59.053Z,1020.46
2019-03-20T01:14:59.024Z,1020.48
2019-03-20T01:15:58.991Z,1020.47
2019-03-20T01:16:58.958Z,1020.49
2019-03-20T01:17:58.933Z,1020.43
2019-03-20T01:18:58.897Z,1020.4
2019-03-20T01:19:58.867Z,1020.44
2019-03-20T01:20:58.835Z,1020.47
2019-03-20T01:21:58.805Z,1020.48
2019-03-20T01:22:58.776Z,1020.5
2019-03-20T01:23:58.741Z,1020.53
2019-03-20T01:24:58.711Z,1020.55
2019-03-20T01:25:58.681Z,1020.58
2019-03-20T01:26:58.651Z,1020.61
2019-03-20T01:27:58.617Z,1020.6
2019-03-20T01:28:58.587Z,1020.61
2019-03-20T01:29:58.555Z,1020.6
2019-03-20T01:30:58.524Z,1020.63
2019-03-20T01:31:58.493Z,1020.63
2019-03-20T01:32:58.467Z,1020.63
2019-03-20T01:33:58.431Z,1020.64
2019-03-20T01:34:58.400Z,1020.6
2019-03-20T01:35:58.429Z,1020.6
2019-03-20T01:36:58.340Z,1020.61
2019-03-20T01:37:58.364Z,1020.57
2019-03-20T01:38:58.278Z,1020.56
2019-03-20T01:39:58.247Z,1020.55
2019-03-20T01:40:58.217Z,1020.56
2019-03-20T01:41:58.185Z,1020.55
2019-03-20T01:42:58.155Z,1020.54
2019-03-20T01:43:58.125Z,1020.57
2019-03-20T01:44:58.141Z,1020.53
2019-03-20T01:45:58.065Z,1020.51
2019-03-20T01:46:58.051Z,1020.55
2019-03-20T01:47:58.005Z,1020.56
2019-03-20T01:48:57.975Z,1020.54
2019-03-20T01:49:57.944Z,1020.5
2019-03-20T01:50:57.918Z,1020.51
2019-03-20T01:51:57.889Z,1020.53
2019-03-20T01:52:57.857Z,1020.53
2019-03-20T01:53:57.828Z,1020.53
2019-03-20T01:54:57.799Z,1020.55
2019-03-20T01:55:57.768Z,1020.51
2019-03-20T01:56:57.738Z,1020.52
2019-03-20T01:57:57.707Z,1020.54
2019-03-20T01:58:57.678Z,1020.55
2019-03-20T01:59:57.648Z,1020.54
2019-03-20T02:00:57.618Z,1020.54
2019-03-20T02:01:57.589Z,1020.53
2019-03-20T02:02:57.560Z,1020.54
2019-03-20T02:03:57.527Z,1020.54
2019-03-20T02:04:57.497Z,1020.53
2019-03-20T02:05:57.467Z,1020.56
2019-03-20T02:06:57.436Z,1020.57
2019-03-20T02:07:57.404Z,1020.51
2019-03-20T02:08:57.375Z,1020.52
2019-03-20T02:09:57.346Z,1020.56
2019-03-20T02:10:57.316Z,1020.56
2019-03-20T02:11:57.288Z,1020.58
2019-03-20T02:12:58.643Z,1020.6
2019-03-20T02:13:57.242Z,1020.57
2019-03-20T02:14:57.311Z,1020.59
2019-03-20T02:15:57.192Z,1020.57
2019-03-20T02:16:57.160Z,1020.59
2019-03-20T02:17:57.133Z,1020.61
2019-03-20T02:18:57.103Z,1020.63
2019-03-20T02:19:57.076Z,1020.65
2019-03-20T02:20:57.051Z,1020.61
2019-03-20T02:21:57.029Z,1020.62
2019-03-20T02:22:57.007Z,1020.6
2019-03-20T02:23:56.986Z,1020.6
2019-03-20T02:24:56.962Z,1020.64
2019-03-20T02:25:56.937Z,1020.65
2019-03-20T02:26:56.913Z,1020.65
2019-03-20T02:27:56.890Z,1020.68
2019-03-20T02:28:56.871Z,1020.7
2019-03-20T02:29:56.852Z,1020.68
2019-03-20T02:30:56.829Z,1020.67
2019-03-20T02:31:56.809Z,1020.71
2019-03-20T02:32:56.790Z,1020.69
2019-03-20T02:33:56.761Z,1020.67
2019-03-20T02:34:56.736Z,1020.66
2019-03-20T02:35:56.707Z,1020.67
2019-03-20T02:36:56.691Z,1020.66
2019-03-20T02:37:56.725Z,1020.67
2019-03-20T02:38:56.628Z,1020.7
2019-03-20T02:39:56.603Z,1020.7
2019-03-20T02:40:56.574Z,1020.74
2019-03-20T02:41:56.547Z,1020.71
2019-03-20T02:42:56.556Z,1020.73
2019-03-20T02:43:56.493Z,1020.73
2019-03-20T02:44:56.465Z,1020.74
2019-03-20T02:45:56.440Z,1020.74
2019-03-20T02:46:56.412Z,1020.73
2019-03-20T02:47:56.386Z,1020.75
2019-03-20T02:48:56.357Z,1020.76
2019-03-20T02:49:56.341Z,1020.76
2019-03-20T02:50:56.303Z,1020.75
2019-03-20T02:51:56.274Z,1020.74
2019-03-20T02:52:56.253Z,1020.71
2019-03-20T02:53:56.223Z,1020.7
2019-03-20T02:54:56.193Z,1020.7
2019-03-20T02:55:56.266Z,1020.68
2019-03-20T02:56:56.138Z,1020.67
2019-03-20T02:57:56.113Z,1020.66
2019-03-20T02:58:56.084Z,1020.64
2019-03-20T02:59:56.055Z,1020.67
2019-03-20T03:00:56.026Z,1020.65
2019-03-20T03:01:56.002Z,1020.6
2019-03-20T03:02:55.968Z,1020.63
2019-03-20T03:03:55.942Z,1020.65
2019-03-20T03:04:55.913Z,1020.63
2019-03-20T03:06:06.391Z,1020.61
2019-03-20T03:06:55.858Z,1020.63
2019-03-20T03:07:55.841Z,1020.66
2019-03-20T03:08:55.802Z,1020.62
2019-03-20T03:09:55.772Z,1020.62
2019-03-20T03:10:55.902Z,1020.61
2019-03-20T03:11:55.718Z,1020.6
2019-03-20T03:12:55.706Z,1020.59
2019-03-20T03:13:55.667Z,1020.6
2019-03-20T03:14:55.633Z,1020.54
2019-03-20T03:15:55.602Z,1020.59
2019-03-20T03:16:55.571Z,1020.53
2019-03-20T03:17:55.546Z,1020.55
2019-03-20T03:18:55.515Z,1020.56
2019-03-20T03:19:55.488Z,1020.57
2019-03-20T03:20:55.458Z,1020.59
2019-03-20T03:21:55.428Z,1020.57
2019-03-20T03:22:55.398Z,1020.58
2019-03-20T03:23:55.371Z,1020.57
2019-03-20T03:24:55.343Z,1020.56
2019-03-20T03:25:55.312Z,1020.59
2019-03-20T03:26:55.284Z,1020.58
2019-03-20T03:27:55.255Z,1020.61
2019-03-20T03:28:55.229Z,1020.61
2019-03-20T03:29:55.201Z,1020.65
2019-03-20T03:30:55.182Z,1020.67
2019-03-20T03:31:55.147Z,1020.65
2019-03-20T03:32:55.166Z,1020.68
2019-03-20T03:33:55.097Z,1020.65
2019-03-20T03:34:55.065Z,1020.67
2019-03-20T03:35:55.037Z,1020.66
2019-03-20T03:36:55.006Z,1020.67
2019-03-20T03:37:54.979Z,1020.69
2019-03-20T03:38:54.949Z,1020.66
2019-03-20T03:39:54.923Z,1020.69
2019-03-20T03:40:54.895Z,1020.7
2019-03-20T03:41:54.867Z,1020.74
2019-03-20T03:42:54.838Z,1020.72
2019-03-20T03:43:54.818Z,1020.77
2019-03-20T03:44:54.787Z,1020.72
2019-03-20T03:45:54.788Z,1020.74
2019-03-20T03:46:54.727Z,1020.73
2019-03-20T03:47:54.700Z,1020.76
2019-03-20T03:48:54.673Z,1020.77
2019-03-20T03:49:54.642Z,1020.76
2019-03-20T03:50:54.615Z,1020.79
2019-03-20T03:51:54.587Z,1020.76
2019-03-20T03:52:54.561Z,1020.77
2019-03-20T03:53:54.537Z,1020.77
2019-03-20T03:54:54.503Z,1020.78
2019-03-20T03:55:54.476Z,1020.79
2019-03-20T03:56:54.453Z,1020.77
2019-03-20T03:57:54.422Z,1020.81
2019-03-20T03:58:54.393Z,1020.83
2019-03-20T03:59:54.365Z,1020.84
2019-03-20T04:00:54.340Z,1020.88
2019-03-20T04:01:54.310Z,1020.88
2019-03-20T04:02:54.280Z,1020.84
2019-03-20T04:03:54.253Z,1020.83
2019-03-20T04:04:54.228Z,1020.84
2019-03-20T04:05:54.196Z,1020.88
2019-03-20T04:06:54.177Z,1020.86
2019-03-20T04:07:54.141Z,1020.86
2019-03-20T04:08:54.113Z,1020.87
2019-03-20T04:09:54.085Z,1020.86
2019-03-20T04:10:54.059Z,1020.89
2019-03-20T04:11:54.032Z,1020.87
2019-03-20T04:12:54.001Z,1020.87
2019-03-20T04:13:53.975Z,1020.84
2019-03-20T04:14:53.958Z,1020.82
2019-03-20T04:15:53.919Z,1020.84
2019-03-20T04:16:53.891Z,1020.81
2019-03-20T04:17:53.863Z,1020.85
2019-03-20T04:18:53.835Z,1020.87
2019-03-20T04:19:53.811Z,1020.82
2019-03-20T04:20:53.779Z,1020.84
2019-03-20T04:21:53.753Z,1020.86
2019-03-20T04:22:53.723Z,1020.86
2019-03-20T04:23:53.697Z,1020.89
2019-03-20T04:24:53.669Z,1020.83
2019-03-20T04:25:53.643Z,1020.85
2019-03-20T04:26:53.613Z,1020.88
2019-03-20T04:27:53.585Z,1020.86
2019-03-20T04:28:53.556Z,1020.86
2019-03-20T04:29:53.529Z,1020.87
2019-03-20T04:30:53.504Z,1020.83
2019-03-20T04:31:53.477Z,1020.87
2019-03-20T04:32:53.451Z,1020.83
2019-03-20T04:33:53.418Z,1020.88
2019-03-20T04:34:53.392Z,1020.88
2019-03-20T04:35:53.363Z,1020.92
2019-03-20T04:36:53.335Z,1020.95
2019-03-20T04:37:53.307Z,1020.93
2019-03-20T04:38:53.280Z,1020.93
2019-03-20T04:39:53.250Z,1020.93
2019-03-20T04:40:53.228Z,1020.94
2019-03-20T04:41:53.213Z,1020.94
2019-03-20T04:42:53.169Z,1020.91
2019-03-20T04:43:53.138Z,1020.96
2019-03-20T04:44:53.110Z,1020.97
2019-03-20T04:45:53.083Z,1020.96
2019-03-20T04:46:53.056Z,1021.04
2019-03-20T04:47:53.032Z,1020.96
2019-03-20T04:48:53.003Z,1020.94
2019-03-20T04:49:52.973Z,1020.91
2019-03-20T04:50:52.943Z,1020.91
2019-03-20T04:51:52.916Z,1020.91
2019-03-20T04:52:52.889Z,1020.93
2019-03-20T04:53:52.861Z,1020.89
2019-03-20T04:54:52.833Z,1020.89
2019-03-20T04:55:52.803Z,1020.86
2019-03-20T04:56:52.783Z,1020.85
2019-03-20T04:57:52.748Z,1020.84
2019-03-20T04:58:52.721Z,1020.82
2019-03-20T04:59:52.691Z,1020.82
2019-03-20T05:00:52.665Z,1020.86
2019-03-20T05:01:52.638Z,1020.88
2019-03-20T05:02:52.610Z,1020.83
2019-03-20T05:03:52.584Z,1020.85
2019-03-20T05:04:52.556Z,1020.85
2019-03-20T05:05:52.529Z,1020.93
2019-03-20T05:06:58.569Z,1020.89
2019-03-20T05:07:52.474Z,1020.9
2019-03-20T05:08:54.712Z,1020.88
2019-03-20T05:09:52.420Z,1020.91
2019-03-20T05:10:52.391Z,1020.92
2019-03-20T05:11:52.366Z,1020.9
2019-03-20T05:12:52.342Z,1020.92
2019-03-20T05:13:52.311Z,1020.88
2019-03-20T05:14:52.285Z,1020.88
2019-03-20T05:15:52.257Z,1020.85
2019-03-20T05:16:52.232Z,1020.84
2019-03-20T05:17:52.204Z,1020.86
2019-03-20T05:18:52.178Z,1020.85
2019-03-20T05:19:52.150Z,1020.84
2019-03-20T05:20:52.124Z,1020.83
2019-03-20T05:21:52.097Z,1020.88
2019-03-20T05:22:52.071Z,1020.86
2019-03-20T05:23:52.047Z,1020.86
2019-03-20T05:24:52.016Z,1020.82
2019-03-20T05:25:51.987Z,1020.84
2019-03-20T05:26:51.962Z,1020.91
2019-03-20T05:27:51.940Z,1020.86
2019-03-20T05:28:51.914Z,1020.88
2019-03-20T05:29:51.880Z,1020.9
2019-03-20T05:30:51.853Z,1020.91
2019-03-20T05:31:51.823Z,1020.93
2019-03-20T05:32:51.795Z,1020.96
2019-03-20T05:33:51.774Z,1020.98
2019-03-20T05:34:51.755Z,1021.01
2019-03-20T05:35:51.712Z,1021.07
2019-03-20T05:36:51.684Z,1021.04
2019-03-20T05:37:51.659Z,1021
2019-03-20T05:38:51.628Z,1021.03
2019-03-20T05:39:51.603Z,1021.01
2019-03-20T05:40:51.573Z,1021.07
2019-03-20T05:41:51.546Z,1021.08
2019-03-20T05:42:51.520Z,1021.1
2019-03-20T05:43:51.491Z,1021.04
2019-03-20T05:44:51.466Z,1021.09
2019-03-20T05:45:51.437Z,1021.1
2019-03-20T05:46:51.412Z,1021.1
2019-03-20T05:47:51.382Z,1021.11
2019-03-20T05:48:51.356Z,1021.13
2019-03-20T05:49:51.331Z,1021.11
2019-03-20T05:50:51.301Z,1021.12
2019-03-20T05:51:51.274Z,1021.14
2019-03-20T05:52:51.249Z,1021.12
2019-03-20T05:53:51.222Z,1021.11
2019-03-20T05:54:51.195Z,1021.13
2019-03-20T05:55:51.169Z,1021.16
2019-03-20T05:56:51.141Z,1021.18
2019-03-20T05:57:51.120Z,1021.23
2019-03-20T05:58:51.086Z,1021.24
2019-03-20T05:59:51.060Z,1021.26
2019-03-20T06:00:51.033Z,1021.3
2019-03-20T06:01:51.005Z,1021.25
2019-03-20T06:02:50.977Z,1021.29
2019-03-20T06:03:50.952Z,1021.32
2019-03-20T06:04:50.926Z,1021.27
2019-03-20T06:05:50.898Z,1021.35
2019-03-20T06:06:50.872Z,1021.38
2019-03-20T06:07:50.844Z,1021.39
2019-03-20T06:08:50.816Z,1021.34
2019-03-20T06:09:50.788Z,1021.38
2019-03-20T06:10:50.766Z,1021.36
2019-03-20T06:11:50.734Z,1021.35
2019-03-20T06:12:50.707Z,1021.37
2019-03-20T06:13:50.680Z,1021.33
2019-03-20T06:14:50.655Z,1021.35
2019-03-20T06:15:50.622Z,1021.39
2019-03-20T06:16:50.597Z,1021.38
2019-03-20T06:17:50.568Z,1021.33
2019-03-20T06:18:50.539Z,1021.41
2019-03-20T06:19:50.512Z,1021.37
2019-03-20T06:20:50.486Z,1021.42
2019-03-20T06:21:50.463Z,1021.44
2019-03-20T06:22:50.433Z,1021.38
2019-03-20T06:23:50.407Z,1021.37
2019-03-20T06:24:50.385Z,1021.39
2019-03-20T06:25:51.557Z,1021.41
2019-03-20T06:26:50.331Z,1021.41
2019-03-20T06:27:50.304Z,1021.38
2019-03-20T06:28:50.280Z,1021.39
2019-03-20T06:29:50.253Z,1021.41
2019-03-20T06:30:50.228Z,1021.41
2019-03-20T06:31:50.202Z,1021.4
2019-03-20T06:32:50.178Z,1021.37
2019-03-20T06:33:50.370Z,1021.35
2019-03-20T06:34:50.127Z,1021.39
2019-03-20T06:35:50.098Z,1021.43
2019-03-20T06:36:50.071Z,1021.45
2019-03-20T06:37:50.046Z,1021.5
2019-03-20T06:38:50.021Z,1021.47
2019-03-20T06:39:49.996Z,1021.55
2019-03-20T06:40:49.971Z,1021.55
2019-03-20T06:41:49.947Z,1021.57
2019-03-20T06:42:49.922Z,1021.56
2019-03-20T06:43:49.895Z,1021.54
2019-03-20T06:44:49.871Z,1021.57
2019-03-20T06:45:49.849Z,1021.54
2019-03-20T06:46:49.819Z,1021.6
2019-03-20T06:47:49.795Z,1021.59
2019-03-20T06:48:49.769Z,1021.51
2019-03-20T06:49:49.744Z,1021.55
2019-03-20T06:50:49.719Z,1021.57
2019-03-20T06:51:49.696Z,1021.53
2019-03-20T06:52:49.671Z,1021.59
2019-03-20T06:53:49.974Z,1021.55
2019-03-20T06:54:49.624Z,1021.55
2019-03-20T06:55:49.598Z,1021.57
2019-03-20T06:56:49.573Z,1021.61
2019-03-20T06:57:49.549Z,1021.63
2019-03-20T06:58:49.525Z,1021.64
2019-03-20T06:59:49.500Z,1021.62
2019-03-20T07:00:49.475Z,1021.6
2019-03-20T07:01:49.451Z,1021.62
2019-03-20T07:02:49.426Z,1021.59
2019-03-20T07:03:49.403Z,1021.58
2019-03-20T07:04:49.381Z,1021.56
2019-03-20T07:05:49.353Z,1021.56
2019-03-20T07:06:49.329Z,1021.58
2019-03-20T07:07:49.306Z,1021.58
2019-03-20T07:08:49.281Z,1021.58
2019-03-20T07:09:49.258Z,1021.65
2019-03-20T07:10:49.234Z,1021.63
2019-03-20T07:11:49.306Z,1021.68
2019-03-20T07:12:49.198Z,1021.66
2019-03-20T07:13:50.603Z,1021.66
2019-03-20T07:14:49.295Z,1021.7
2019-03-20T07:15:49.233Z,1021.7
2019-03-20T07:16:49.364Z,1021.66
2019-03-20T07:17:49.072Z,1021.65
2019-03-20T07:18:49.049Z,1021.65
2019-03-20T07:19:49.028Z,1021.65
2019-03-20T07:20:49.010Z,1021.66
2019-03-20T07:21:49.000Z,1021.67
2019-03-20T07:22:48.966Z,1021.71
2019-03-20T07:23:48.944Z,1021.71
2019-03-20T07:24:48.922Z,1021.67
2019-03-20T07:25:48.898Z,1021.68
2019-03-20T07:26:48.875Z,1021.61
2019-03-20T07:27:48.852Z,1021.64
2019-03-20T07:28:48.830Z,1021.61
2019-03-20T07:29:48.833Z,1021.6
2019-03-20T07:30:48.783Z,1021.62
2019-03-20T07:31:48.761Z,1021.64
2019-03-20T07:32:48.739Z,1021.61
2019-03-20T07:33:48.715Z,1021.61
2019-03-20T07:34:48.693Z,1021.63
2019-03-20T07:35:48.669Z,1021.65
2019-03-20T07:36:48.688Z,1021.66
2019-03-20T07:37:55.780Z,1021.67
2019-03-20T07:38:48.599Z,1021.73
2019-03-20T07:39:48.576Z,1021.75
2019-03-20T07:40:48.555Z,1021.73
2019-03-20T07:41:48.534Z,1021.77
2019-03-20T07:42:48.514Z,1021.75
2019-03-20T07:43:48.492Z,1021.78
2019-03-20T07:44:48.469Z,1021.74
2019-03-20T07:45:48.450Z,1021.68
2019-03-20T07:46:49.627Z,1021.71
2019-03-20T07:47:48.404Z,1021.72
2019-03-20T07:48:48.382Z,1021.75
2019-03-20T07:49:48.358Z,1021.8
2019-03-20T07:50:48.336Z,1021.78
2019-03-20T07:51:48.313Z,1021.82
2019-03-20T07:52:48.290Z,1021.81
2019-03-20T07:53:48.272Z,1021.81
2019-03-20T07:54:48.245Z,1021.83
2019-03-20T07:55:48.224Z,1021.82
2019-03-20T07:56:49.402Z,1021.76
2019-03-20T07:57:48.179Z,1021.72
2019-03-20T07:58:48.156Z,1021.74
2019-03-20T07:59:48.135Z,1021.75
2019-03-20T08:00:48.115Z,1021.78
2019-03-20T08:01:48.191Z,1021.8
2019-03-20T08:02:48.079Z,1021.83
2019-03-20T08:03:48.058Z,1021.76
2019-03-20T08:04:48.035Z,1021.81
2019-03-20T08:05:48.408Z,1021.87
2019-03-20T08:06:47.992Z,1021.88
2019-03-20T08:07:47.973Z,1021.9
2019-03-20T08:08:47.961Z,1021.91
2019-03-20T08:09:47.938Z,1021.92
2019-03-20T08:10:47.913Z,1021.93
2019-03-20T08:11:47.893Z,1021.95
2019-03-20T08:12:47.874Z,1021.98
2019-03-20T08:13:47.854Z,1021.97
2019-03-20T08:14:47.835Z,1022
2019-03-20T08:15:47.887Z,1021.97
2019-03-20T08:16:47.796Z,1022.03
2019-03-20T08:17:47.780Z,1021.99
2019-03-20T08:18:47.768Z,1022.02
2019-03-20T08:19:47.738Z,1022.05
2019-03-20T08:20:47.721Z,1022.06
2019-03-20T08:21:47.706Z,1022.15
2019-03-20T08:22:47.688Z,1022.08
2019-03-20T08:23:47.676Z,1022.17
2019-03-20T08:24:47.653Z,1022.2
2019-03-20T08:25:47.693Z,1022.19
2019-03-20T08:26:47.620Z,1022.16
2019-03-20T08:27:47.600Z,1022.18
2019-03-20T08:28:47.580Z,1022.17
2019-03-20T08:29:47.561Z,1022.24
2019-03-20T08:30:47.542Z,1022.22
2019-03-20T08:31:47.520Z,1022.2
2019-03-20T08:32:47.501Z,1022.27
2019-03-20T08:33:47.482Z,1022.28
2019-03-20T08:34:47.460Z,1022.24
2019-03-20T08:35:47.464Z,1022.24
2019-03-20T08:36:47.424Z,1022.2
2019-03-20T08:37:47.411Z,1022.25
2019-03-20T08:38:47.384Z,1022.26
2019-03-20T08:39:47.365Z,1022.25
2019-03-20T08:40:47.367Z,1022.26
2019-03-20T08:41:47.328Z,1022.23
2019-03-20T08:42:47.309Z,1022.3
2019-03-20T08:43:47.300Z,1022.26
2019-03-20T08:44:47.271Z,1022.28
2019-03-20T08:45:47.251Z,1022.33
2019-03-20T08:46:47.234Z,1022.3
2019-03-20T08:47:47.219Z,1022.3
2019-03-20T08:48:48.360Z,1022.38
2019-03-20T08:49:47.174Z,1022.3
2019-03-20T08:50:47.155Z,1022.36
2019-03-20T08:51:47.135Z,1022.37
2019-03-20T08:52:47.116Z,1022.32
2019-03-20T08:53:47.279Z,1022.38
2019-03-20T08:54:47.083Z,1022.38
2019-03-20T08:55:47.053Z,1022.42
2019-03-20T08:56:47.119Z,1022.37
2019-03-20T08:57:47.014Z,1022.34
2019-03-20T08:58:46.993Z,1022.4
2019-03-20T08:59:46.973Z,1022.37
2019-03-20T09:00:46.953Z,1022.38
2019-03-20T09:01:46.934Z,1022.43
2019-03-20T09:02:46.914Z,1022.41
2019-03-20T09:03:46.895Z,1022.39
2019-03-20T09:04:46.874Z,1022.39
2019-03-20T09:05:46.900Z,1022.39
2019-03-20T09:06:46.838Z,1022.44
2019-03-20T09:07:47.719Z,1022.42
2019-03-20T09:08:46.798Z,1022.4
2019-03-20T09:09:46.938Z,1022.35
2019-03-20T09:10:46.761Z,1022.33
2019-03-20T09:11:46.740Z,1022.34
2019-03-20T09:12:46.721Z,1022.28
2019-03-20T09:13:46.701Z,1022.34
2019-03-20T09:14:46.831Z,1022.33
2019-03-20T09:15:46.665Z,1022.37
2019-03-20T09:16:46.645Z,1022.34
2019-03-20T09:17:46.629Z,1022.35
2019-03-20T09:18:46.605Z,1022.37
2019-03-20T09:19:46.725Z,1022.34
2019-03-20T09:20:46.679Z,1022.38
2019-03-20T09:21:46.549Z,1022.31
2019-03-20T09:22:46.528Z,1022.28
2019-03-20T09:23:46.509Z,1022.3
2019-03-20T09:24:46.489Z,1022.32
2019-03-20T09:25:46.467Z,1022.31
2019-03-20T09:26:46.449Z,1022.35
2019-03-20T09:27:46.426Z,1022.38
2019-03-20T09:28:46.408Z,1022.35
2019-03-20T09:29:46.388Z,1022.3
2019-03-20T09:30:46.367Z,1022.34
2019-03-20T09:31:46.347Z,1022.34
2019-03-20T09:32:46.428Z,1022.35
2019-03-20T09:33:46.331Z,1022.37
2019-03-20T09:34:46.289Z,1022.43
2019-03-20T09:35:46.275Z,1022.45
2019-03-20T09:36:46.246Z,1022.46
2019-03-20T09:37:52.025Z,1022.42
2019-03-20T09:38:46.206Z,1022.45
2019-03-20T09:39:46.187Z,1022.41
2019-03-20T09:40:46.166Z,1022.48
2019-03-20T09:41:46.146Z,1022.35
2019-03-20T09:42:46.130Z,1022.34
2019-03-20T09:43:46.108Z,1022.36
2019-03-20T09:44:46.091Z,1022.28
2019-03-20T09:45:46.069Z,1022.31
2019-03-20T09:46:46.048Z,1022.28
2019-03-20T09:47:46.030Z,1022.39
2019-03-20T09:48:46.011Z,1022.41
2019-03-20T09:49:45.997Z,1022.32
2019-03-20T09:50:47.186Z,1022.29
2019-03-20T09:51:45.968Z,1022.36
2019-03-20T09:52:45.953Z,1022.35
2019-03-20T09:53:45.935Z,1022.34
2019-03-20T09:54:45.915Z,1022.35
2019-03-20T09:55:45.906Z,1022.4
2019-03-20T09:56:45.879Z,1022.41
2019-03-20T09:57:45.975Z,1022.4
2019-03-20T09:58:45.844Z,1022.41
2019-03-20T09:59:46.078Z,1022.43
2019-03-20T10:00:45.804Z,1022.41
2019-03-20T10:01:45.788Z,1022.49
2019-03-20T10:02:45.776Z,1022.45
2019-03-20T10:03:45.758Z,1022.48
2019-03-20T10:04:46.943Z,1022.44
2019-03-20T10:05:45.726Z,1022.43
2019-03-20T10:06:45.707Z,1022.4
2019-03-20T10:07:45.691Z,1022.42
2019-03-20T10:08:53.728Z,1022.4
2019-03-20T10:09:45.654Z,1022.41
2019-03-20T10:10:45.636Z,1022.39
2019-03-20T10:11:45.622Z,1022.45
2019-03-20T10:12:45.605Z,1022.41
2019-03-20T10:13:45.589Z,1022.41
2019-03-20T10:14:45.574Z,1022.4
2019-03-20T10:15:45.559Z,1022.38
2019-03-20T10:16:45.542Z,1022.33
2019-03-20T10:17:45.529Z,1022.35
2019-03-20T10:18:45.505Z,1022.33
2019-03-20T10:19:45.487Z,1022.27
2019-03-20T10:20:45.469Z,1022.21
2019-03-20T10:21:45.454Z,1022.28
2019-03-20T10:22:45.438Z,1022.35
2019-03-20T10:23:45.420Z,1022.33
2019-03-20T10:24:45.404Z,1022.3
2019-03-20T10:25:45.413Z,1022.3
2019-03-20T10:26:45.384Z,1022.29
2019-03-20T10:27:45.357Z,1022.4
2019-03-20T10:28:45.343Z,1022.35
2019-03-20T10:29:45.326Z,1022.33
2019-03-20T10:30:45.313Z,1022.37
2019-03-20T10:31:45.296Z,1022.35
2019-03-20T10:32:45.280Z,1022.36
2019-03-20T10:33:45.363Z,1022.35
2019-03-20T10:34:45.248Z,1022.32
2019-03-20T10:35:50.072Z,1022.32
2019-03-20T10:36:45.213Z,1022.37
2019-03-20T10:37:45.198Z,1022.37
2019-03-20T10:38:45.202Z,1022.28
2019-03-20T10:39:45.161Z,1022.43
2019-03-20T10:40:45.145Z,1022.32
2019-03-20T10:41:45.130Z,1022.39
2019-03-20T10:42:45.113Z,1022.38
2019-03-20T10:43:45.096Z,1022.34
2019-03-20T10:44:45.080Z,1022.28
2019-03-20T10:45:45.065Z,1022.29
2019-03-20T10:46:45.048Z,1022.29
2019-03-20T10:47:45.034Z,1022.26
2019-03-20T10:48:45.017Z,1022.29
2019-03-20T10:49:45.008Z,1022.28
2019-03-20T10:50:44.986Z,1022.31
2019-03-20T10:51:44.971Z,1022.26
2019-03-20T10:52:44.956Z,1022.31
2019-03-20T10:53:44.943Z,1022.33
2019-03-20T10:54:44.925Z,1022.29
2019-03-20T10:55:44.911Z,1022.26
2019-03-20T10:56:44.898Z,1022.31
2019-03-20T10:57:44.917Z,1022.31
2019-03-20T10:58:44.881Z,1022.25
2019-03-20T10:59:44.872Z,1022.34
2019-03-20T11:00:44.863Z,1022.29
2019-03-20T11:01:44.854Z,1022.36
2019-03-20T11:02:44.846Z,1022.38
2019-03-20T11:03:44.836Z,1022.36
2019-03-20T11:04:44.831Z,1022.42
2019-03-20T11:05:44.817Z,1022.48
2019-03-20T11:06:44.807Z,1022.48
2019-03-20T11:07:44.799Z,1022.46
2019-03-20T11:08:44.785Z,1022.43
2019-03-20T11:09:44.774Z,1022.48
2019-03-20T11:10:44.764Z,1022.41
2019-03-20T11:11:44.755Z,1022.5
2019-03-20T11:12:44.738Z,1022.48
2019-03-20T11:13:44.726Z,1022.52
2019-03-20T11:14:44.711Z,1022.52
2019-03-20T11:15:44.708Z,1022.53
2019-03-20T11:16:44.681Z,1022.52
2019-03-20T11:17:44.666Z,1022.56
2019-03-20T11:18:44.651Z,1022.56
2019-03-20T11:19:44.637Z,1022.59
2019-03-20T11:20:44.622Z,1022.5
2019-03-20T11:21:44.607Z,1022.57
2019-03-20T11:22:44.592Z,1022.53
2019-03-20T11:23:44.581Z,1022.5
2019-03-20T11:24:44.563Z,1022.51
2019-03-20T11:25:44.551Z,1022.53
2019-03-20T11:26:44.535Z,1022.63
2019-03-20T11:27:44.623Z,1022.63
2019-03-20T11:28:44.507Z,1022.63
2019-03-20T11:29:44.494Z,1022.58
2019-03-20T11:30:44.548Z,1022.58
2019-03-20T11:31:44.462Z,1022.53
2019-03-20T11:32:44.500Z,1022.53
2019-03-20T11:33:44.430Z,1022.51
2019-03-20T11:34:44.418Z,1022.53
2019-03-20T11:35:44.404Z,1022.49
2019-03-20T11:36:44.398Z,1022.5
2019-03-20T11:37:44.374Z,1022.49
2019-03-20T11:38:44.358Z,1022.54
2019-03-20T11:39:44.344Z,1022.5
2019-03-20T11:40:44.333Z,1022.48
2019-03-20T11:41:44.316Z,1022.49
2019-03-20T11:42:44.301Z,1022.5
2019-03-20T11:43:44.291Z,1022.52
2019-03-20T11:44:44.272Z,1022.53
2019-03-20T11:45:44.257Z,1022.52
2019-03-20T11:46:44.245Z,1022.54
2019-03-20T11:47:44.229Z,1022.54
2019-03-20T11:48:44.217Z,1022.52
2019-03-20T11:49:44.202Z,1022.57
2019-03-20T11:50:44.189Z,1022.55
2019-03-20T11:51:44.177Z,1022.57
2019-03-20T11:52:44.163Z,1022.52
2019-03-20T11:53:44.149Z,1022.54
2019-03-20T11:54:44.132Z,1022.53
2019-03-20T11:55:44.119Z,1022.52
2019-03-20T11:56:44.110Z,1022.55
2019-03-20T11:57:44.106Z,1022.56
2019-03-20T11:58:44.131Z,1022.58
2019-03-20T11:59:44.095Z,1022.44
2019-03-20T12:00:44.053Z,1022.48
2019-03-20T12:01:44.102Z,1022.45
2019-03-20T12:02:44.175Z,1022.46
2019-03-20T12:03:44.042Z,1022.48
2019-03-20T12:04:44.000Z,1022.49
2019-03-20T12:05:43.983Z,1022.52
2019-03-20T12:06:43.971Z,1022.55
2019-03-20T12:07:43.957Z,1022.57